Etusivu
METAR-TAF:

METAR-TAF

Lentoasemat :

Flying Cloud Airport

Minneapolis / Eden Prairie, Minnesota, Yhdysvallat

Leveyspiiri: 44-49-56N, Pituuspiiri: 093-28-13W, korkeus merenpinnasta: 287 m

Tämänhetkinen sää

Tämä raportti tehtiin 32 minuuttia sitten, kello 11.53 UTC
Tuuli 4 kn etelästä
Lämpötila -1°C
Kosteus 86%
Ilmanpaine 1008 hPa
Näkyvyys: 16.1 km
Pilvistä 1200 ft:n korkeudessa

METAR: KFCM 181153Z AUTO 19004KT 10SM OVC012 M01/M03 A2978 RMK AO2 SLP094 T10061028 10000 21006 56004 $

Aika: 06:25 (12:25 UTC)


TAF: puuttuu

Säähavainnot ja -ennusteet yli 4000 lentoasemalta (METAR- ja TAF-raportit).

Käytössä olevat sääasemat on merkitty karttaan keltaisilla ja punaisilla pisteillä.

Aseta hiiri pisteen päälle nähdäksesi sääaseman nimen.

Klikkaa sitten nähdäksesi säähavainnot ja -ennusteet.

Kartan vaihtaminen: klikkaa mustalla rastilla varustettuja vihreitä pisteitä, niin voit zoomata sisään; viivalla varustettua vihreää pistettä, niin voit zoomata ulos tai vihreitä nuolia, niin pääset viereisille kartoille.


METAR-TAF: